createdAt,value
2019-05-13T00:00:19.013Z,6.70
2019-05-13T00:03:26.477Z,6.70
2019-05-13T00:06:34.495Z,6.70
2019-05-13T00:09:44.191Z,6.70
2019-05-13T00:12:53.798Z,6.70
2019-05-13T00:16:00.425Z,6.80
2019-05-13T00:19:08.053Z,6.70
2019-05-13T00:22:15.635Z,6.70
2019-05-13T00:25:24.178Z,6.60
2019-05-13T00:28:34.024Z,6.60
2019-05-13T00:31:41.204Z,6.60
2019-05-13T00:34:48.768Z,6.60
2019-05-13T00:37:56.299Z,6.70
2019-05-13T00:41:03.923Z,6.60
2019-05-13T00:44:11.431Z,6.70
2019-05-13T00:47:18.995Z,6.70
2019-05-13T00:50:26.539Z,6.60
2019-05-13T00:53:35.363Z,6.70
2019-05-13T00:56:43.605Z,6.70
2019-05-13T00:59:54.095Z,6.60
2019-05-13T01:03:03.766Z,6.60
2019-05-13T01:06:13.211Z,6.60
2019-05-13T01:09:20.011Z,6.60
2019-05-13T01:12:27.534Z,6.60
2019-05-13T01:15:35.052Z,6.60
2019-05-13T01:18:43.216Z,6.50
2019-05-13T01:21:50.919Z,6.50
2019-05-13T01:24:58.452Z,6.50
2019-05-13T01:28:05.984Z,6.50
2019-05-13T01:31:13.629Z,6.40
2019-05-13T01:34:23.363Z,6.40
2019-05-13T01:37:40.026Z,6.40
2019-05-13T01:40:39.493Z,6.40
2019-05-13T01:43:46.930Z,6.40
2019-05-13T01:46:54.944Z,6.40
2019-05-13T01:50:03.961Z,6.40
2019-05-13T01:53:14.273Z,6.40
2019-05-13T01:56:23.388Z,6.30
2019-05-13T01:59:30.227Z,6.30
2019-05-13T02:02:37.675Z,6.30
2019-05-13T02:05:45.231Z,6.30
2019-05-13T02:08:54.483Z,6.30
2019-05-13T02:12:04.568Z,6.30
2019-05-13T02:15:14.497Z,6.30
2019-05-13T02:18:24.443Z,6.30
2019-05-13T02:21:33.621Z,6.30
2019-05-13T02:24:41.288Z,6.30
2019-05-13T02:27:49.891Z,6.30
2019-05-13T02:30:57.478Z,6.30
2019-05-13T02:34:05.178Z,6.30
2019-05-13T02:37:12.980Z,6.30
2019-05-13T02:40:22.617Z,6.30
2019-05-13T02:43:32.964Z,6.30
2019-05-13T02:46:38.764Z,6.30
2019-05-13T02:49:46.325Z,6.30
2019-05-13T02:52:53.797Z,6.30
2019-05-13T02:56:03.025Z,6.30
2019-05-13T02:59:13.071Z,6.30
2019-05-13T03:02:22.168Z,6.20
2019-05-13T03:05:31.899Z,6.20
2019-05-13T03:08:46.110Z,6.20
2019-05-13T03:11:47.091Z,6.10
2019-05-13T03:14:54.547Z,6.10
2019-05-13T03:18:06.607Z,6.10
2019-05-13T03:21:14.154Z,6.10
2019-05-13T03:24:22.748Z,6.10
2019-05-13T03:27:33.699Z,6.10
2019-05-13T03:30:45.787Z,6.10
2019-05-13T03:33:55.475Z,6.00
2019-05-13T03:37:05.507Z,6.10
2019-05-13T03:40:08.550Z,6.10
2019-05-13T03:43:17.233Z,6.10
2019-05-13T03:46:25.102Z,6.10
2019-05-13T03:49:35.665Z,6.10
2019-05-13T03:52:43.486Z,6.00
2019-05-13T03:55:54.156Z,6.00
2019-05-13T03:59:02.728Z,6.00
2019-05-13T04:02:12.711Z,6.00
2019-05-13T04:05:22.440Z,6.10
2019-05-13T04:08:27.778Z,6.00
2019-05-13T04:11:35.895Z,6.10
2019-05-13T04:14:43.657Z,6.00
2019-05-13T04:17:53.042Z,6.00
2019-05-13T04:21:02.708Z,6.10
2019-05-13T04:24:12.220Z,6.10
2019-05-13T04:27:19.288Z,6.10
2019-05-13T04:30:26.786Z,6.00
2019-05-13T04:33:34.306Z,6.10
2019-05-13T04:36:43.116Z,6.10
2019-05-13T04:39:56.101Z,6.10
2019-05-13T04:43:02.934Z,6.10
2019-05-13T04:46:13.950Z,6.10
2019-05-13T04:49:22.992Z,6.10
2019-05-13T04:52:32.710Z,6.00
2019-05-13T04:55:42.525Z,6.00
2019-05-13T04:58:48.802Z,6.10
2019-05-13T05:02:43.005Z,6.10
2019-05-13T05:06:28.432Z,6.10
2019-05-13T05:10:17.347Z,6.20
2019-05-13T05:13:33.127Z,6.20
2019-05-13T05:17:15.166Z,6.30
2019-05-13T05:20:32.266Z,6.30
2019-05-13T05:24:32.336Z,6.40
2019-05-13T05:27:51.475Z,6.40
2019-05-13T05:31:25.785Z,6.50
2019-05-13T05:35:13.853Z,6.50
2019-05-13T05:38:51.474Z,6.50
2019-05-13T05:42:02.020Z,6.60
2019-05-13T05:45:11.451Z,6.60
2019-05-13T05:48:22.145Z,6.70
2019-05-13T05:51:31.560Z,6.80
2019-05-13T05:54:42.210Z,6.90
2019-05-13T05:57:52.249Z,6.90
2019-05-13T06:01:02.625Z,6.90
2019-05-13T06:04:12.600Z,6.90
2019-05-13T06:07:21.972Z,6.90
2019-05-13T06:10:44.230Z,7.00
2019-05-13T06:13:42.025Z,7.00
2019-05-13T06:16:51.734Z,7.10
2019-05-13T06:20:02.799Z,7.10
2019-05-13T06:23:08.609Z,7.10
2019-05-13T06:26:16.079Z,7.20
2019-05-13T06:29:23.600Z,7.20
2019-05-13T06:32:31.593Z,7.30
2019-05-13T06:35:42.570Z,7.20
2019-05-13T06:38:48.117Z,7.20
2019-05-13T06:41:55.590Z,7.20
2019-05-13T06:45:03.407Z,7.30
2019-05-13T06:48:12.002Z,7.20
2019-05-13T06:51:22.030Z,7.30
2019-05-13T06:54:28.746Z,7.20
2019-05-13T06:57:36.286Z,7.30
2019-05-13T07:00:44.388Z,7.30
2019-05-13T07:03:52.074Z,7.30
2019-05-13T07:07:09.987Z,7.40
2019-05-13T07:10:12.511Z,7.50
2019-05-13T07:13:21.614Z,7.50
2019-05-13T07:16:31.679Z,7.60
2019-05-13T07:19:41.245Z,7.60
2019-05-13T07:22:49.090Z,7.70
2019-05-13T07:25:56.579Z,7.80
2019-05-13T07:29:04.606Z,7.90
2019-05-13T07:32:12.667Z,8.00
2019-05-13T07:35:22.732Z,8.10
2019-05-13T07:38:32.346Z,8.10
2019-05-13T07:41:42.916Z,8.20
2019-05-13T07:44:51.470Z,8.30
2019-05-13T07:47:58.470Z,8.30
2019-05-13T07:51:05.888Z,8.40
2019-05-13T07:54:13.332Z,8.50
2019-05-13T07:57:21.454Z,8.60
2019-05-13T08:00:29.153Z,8.80
2019-05-13T08:03:36.589Z,8.80
2019-05-13T08:06:44.195Z,9.00
2019-05-13T08:09:55.322Z,9.20
2019-05-13T08:13:02.323Z,9.30
2019-05-13T08:16:12.279Z,9.40
2019-05-13T08:19:18.946Z,9.60
2019-05-13T08:22:26.504Z,9.80
2019-05-13T08:25:33.918Z,9.90
2019-05-13T08:28:57.306Z,10.00
2019-05-13T08:31:51.822Z,10.20
2019-05-13T08:35:03.086Z,10.40
2019-05-13T08:38:08.716Z,10.80
2019-05-13T08:41:19.579Z,11.00
2019-05-13T08:44:25.231Z,11.00
2019-05-13T08:47:32.704Z,11.20
2019-05-13T08:50:42.101Z,11.40
2019-05-13T08:53:51.651Z,11.70
2019-05-13T08:56:58.766Z,11.70
2019-05-13T09:00:07.225Z,12.10
2019-05-13T09:03:15.748Z,12.50
2019-05-13T09:06:23.194Z,12.60
2019-05-13T09:09:31.404Z,12.70
2019-05-13T09:12:41.045Z,12.80
2019-05-13T09:15:48.422Z,12.90
2019-05-13T09:18:55.874Z,13.10
2019-05-13T09:22:03.538Z,13.00
2019-05-13T09:25:12.619Z,12.90
2019-05-13T09:28:21.792Z,12.70
2019-05-13T09:31:29.118Z,12.60
2019-05-13T09:34:36.697Z,12.30
2019-05-13T09:37:44.135Z,12.40
2019-05-13T09:40:52.983Z,12.50
2019-05-13T09:44:02.006Z,12.50
2019-05-13T09:47:11.791Z,12.70
2019-05-13T09:50:29.450Z,12.80
2019-05-13T09:53:28.177Z,12.80
2019-05-13T09:56:35.611Z,12.80
2019-05-13T09:59:43.025Z,12.70
2019-05-13T10:02:51.653Z,12.60
2019-05-13T10:06:01.958Z,12.60
2019-05-13T10:09:09.049Z,12.60
2019-05-13T10:12:16.597Z,12.50
2019-05-13T10:15:24.060Z,12.40
2019-05-13T10:18:32.698Z,12.50
2019-05-13T10:21:42.008Z,12.70
2019-05-13T10:24:51.452Z,12.90
2019-05-13T10:28:02.000Z,13.10
2019-05-13T10:31:11.813Z,12.90
2019-05-13T10:34:18.481Z,12.60
2019-05-13T10:37:25.998Z,12.80
2019-05-13T10:40:33.437Z,13.00
2019-05-13T10:43:44.179Z,13.10
2019-05-13T10:46:52.291Z,13.40
2019-05-13T10:50:02.539Z,13.80
2019-05-13T10:53:08.308Z,13.90
2019-05-13T10:56:15.859Z,14.10
2019-05-13T10:59:23.594Z,14.10
2019-05-13T11:02:32.705Z,13.90
2019-05-13T11:05:42.046Z,14.00
2019-05-13T11:08:49.375Z,13.90
2019-05-13T11:11:58.472Z,13.80
2019-05-13T11:15:06.794Z,13.70
2019-05-13T11:18:19.441Z,13.70
2019-05-13T11:21:23.520Z,13.70
2019-05-13T11:24:32.438Z,13.60
2019-05-13T11:27:42.124Z,13.70
2019-05-13T11:30:49.487Z,13.60
2019-05-13T11:33:58.394Z,13.40
2019-05-13T11:37:05.923Z,13.60
2019-05-13T11:40:13.758Z,13.40
2019-05-13T11:43:21.654Z,13.30
2019-05-13T11:46:33.218Z,13.20
2019-05-13T11:49:42.607Z,13.10
2019-05-13T11:52:52.401Z,13.20
2019-05-13T11:55:58.660Z,13.20
2019-05-13T11:59:06.090Z,13.10
2019-05-13T12:02:14.516Z,13.00
2019-05-13T12:05:22.591Z,12.90
2019-05-13T12:08:33.921Z,12.90
2019-05-13T12:11:39.432Z,12.80
2019-05-13T12:15:18.114Z,12.70
2019-05-13T12:17:56.133Z,12.70
2019-05-13T12:21:04.383Z,12.40
2019-05-13T12:24:11.961Z,12.50
2019-05-13T12:27:19.447Z,12.50
2019-05-13T12:30:26.988Z,12.40
2019-05-13T12:33:34.600Z,12.40
2019-05-13T12:39:53.170Z,12.40
2019-05-13T12:43:02.046Z,12.40
2019-05-13T12:46:12.283Z,12.30
2019-05-13T12:49:18.442Z,12.20
2019-05-13T12:52:25.905Z,12.20
2019-05-13T12:55:33.729Z,12.20
2019-05-13T12:58:41.316Z,12.20
2019-05-13T13:01:48.771Z,12.20
2019-05-13T13:05:09.249Z,12.10
2019-05-13T13:08:28.405Z,12.10
2019-05-13T13:11:15.869Z,12.00
2019-05-13T13:14:23.334Z,11.90
2019-05-13T13:17:30.694Z,11.80
2019-05-13T13:20:42.055Z,11.70
2019-05-13T13:23:48.691Z,11.70
2019-05-13T13:26:56.154Z,11.60
2019-05-13T13:30:08.264Z,11.70
2019-05-13T13:33:14.894Z,11.70
2019-05-13T13:36:24.278Z,11.70
2019-05-13T13:39:32.396Z,11.80
2019-05-13T13:42:43.062Z,11.70
2019-05-13T13:48:58.297Z,11.60
2019-05-13T13:52:05.755Z,11.50
2019-05-13T13:55:15.780Z,11.50
2019-05-13T13:58:25.360Z,11.40
2019-05-13T14:01:33.358Z,11.40
2019-05-13T14:04:42.929Z,11.40
2019-05-13T14:06:33.066Z,12.30
2019-05-13T14:06:58.778Z,11.70
2019-05-13T14:07:52.157Z,11.30
2019-05-13T14:11:01.942Z,11.10
2019-05-13T14:14:08.591Z,10.90
2019-05-13T14:17:17.221Z,10.70
2019-05-13T14:20:24.707Z,10.60
2019-05-13T14:23:32.226Z,10.50
2019-05-13T14:26:43.184Z,10.30
2019-05-13T14:29:51.780Z,10.10
2019-05-13T14:32:58.183Z,10.00
2019-05-13T14:36:05.787Z,10.00
2019-05-13T14:39:13.578Z,9.80
2019-05-13T14:42:22.763Z,9.80
2019-05-13T14:45:31.829Z,9.70
2019-05-13T14:48:39.420Z,9.60
2019-05-13T14:51:46.978Z,9.60
2019-05-13T14:54:54.454Z,9.50
2019-05-13T14:58:01.892Z,9.50
2019-05-13T15:01:15.717Z,9.40
2019-05-13T15:04:18.537Z,9.20
2019-05-13T15:07:25.991Z,9.10
2019-05-13T15:10:33.428Z,9.10
2019-05-13T15:13:42.488Z,9.00
2019-05-13T15:17:02.229Z,9.00
2019-05-13T15:19:58.977Z,8.90
2019-05-13T15:23:06.612Z,8.70
2019-05-13T15:26:14.310Z,8.70
2019-05-13T15:29:22.307Z,8.70
2019-05-13T15:32:32.562Z,8.70
2019-05-13T15:35:41.696Z,8.60
2019-05-13T15:38:48.446Z,8.70
2019-05-13T15:41:55.861Z,8.60
2019-05-13T15:45:03.395Z,8.60
2019-05-13T15:48:11.606Z,8.60
2019-05-13T15:51:21.847Z,8.70
2019-05-13T15:54:28.605Z,8.70
2019-05-13T15:57:36.126Z,8.70
2019-05-13T16:00:43.888Z,8.70
2019-05-13T16:03:52.518Z,8.70
2019-05-13T16:07:01.709Z,8.70
2019-05-13T16:10:11.327Z,8.80
2019-05-13T16:13:18.528Z,8.70
2019-05-13T16:16:25.945Z,8.70
2019-05-13T16:19:34.794Z,8.70
2019-05-13T16:22:44.133Z,8.70
2019-05-13T16:25:52.161Z,8.60
2019-05-13T16:29:02.143Z,8.60
2019-05-13T16:32:08.953Z,8.60
2019-05-13T16:35:16.536Z,8.70
2019-05-13T16:38:24.222Z,8.60
2019-05-13T16:41:31.742Z,8.60
2019-05-13T16:44:42.779Z,8.70
2019-05-13T16:47:57.134Z,8.70
2019-05-13T16:50:58.388Z,8.60
2019-05-13T16:54:08.300Z,8.70
2019-05-13T16:57:15.762Z,8.50
2019-05-13T17:00:23.358Z,8.50
2019-05-13T17:03:31.947Z,8.50
2019-05-13T17:06:41.484Z,8.50
2019-05-13T17:09:48.616Z,8.50
2019-05-13T17:12:56.164Z,8.50
2019-05-13T17:16:03.649Z,8.50
2019-05-13T17:19:12.072Z,8.50
2019-05-13T17:22:21.298Z,8.40
2019-05-13T17:25:28.889Z,8.30
2019-05-13T17:28:36.602Z,8.30
2019-05-13T17:31:44.179Z,8.10
2019-05-13T17:34:51.719Z,8.10
2019-05-13T17:37:59.224Z,8.10
2019-05-13T17:41:06.772Z,8.10
2019-05-13T17:44:15.795Z,8.00
2019-05-13T17:47:23.474Z,8.00
2019-05-13T17:50:31.550Z,8.00
2019-05-13T17:53:41.255Z,8.00
2019-05-13T17:56:48.768Z,7.90
2019-05-13T17:59:56.319Z,7.90
2019-05-13T18:03:03.782Z,7.90
2019-05-13T18:06:11.551Z,7.90
2019-05-13T18:09:19.097Z,7.90
2019-05-13T18:12:26.538Z,7.80
2019-05-13T18:15:34.149Z,7.80
2019-05-13T18:18:47.053Z,7.80
2019-05-13T18:21:51.610Z,7.80
2019-05-13T18:24:59.157Z,7.70
2019-05-13T18:28:07.853Z,7.70
2019-05-13T18:31:15.508Z,7.70
2019-05-13T18:34:23.103Z,7.70
2019-05-13T18:37:31.740Z,7.70
2019-05-13T18:40:41.766Z,7.70
2019-05-13T18:43:48.532Z,7.70
2019-05-13T18:46:55.999Z,7.70
2019-05-13T18:50:03.459Z,7.60
2019-05-13T18:53:12.495Z,7.60
2019-05-13T18:56:21.836Z,7.60
2019-05-13T18:59:29.122Z,7.50
2019-05-13T19:02:36.685Z,7.50
2019-05-13T19:05:44.191Z,7.50
2019-05-13T19:08:52.854Z,7.40
2019-05-13T19:12:01.375Z,7.40
2019-05-13T19:15:12.431Z,7.40
2019-05-13T19:18:21.455Z,7.30
2019-05-13T19:21:31.073Z,7.30
2019-05-13T19:24:38.950Z,7.30
2019-05-13T19:27:46.479Z,7.30
2019-05-13T19:30:56.710Z,7.30
2019-05-13T19:34:03.035Z,7.20
2019-05-13T19:37:11.564Z,7.20
2019-05-13T19:40:21.875Z,7.20
2019-05-13T19:43:28.583Z,7.10
2019-05-13T19:46:36.114Z,7.10
2019-05-13T19:49:46.500Z,7.10
2019-05-13T19:52:54.466Z,7.00
2019-05-13T19:56:02.049Z,7.00
2019-05-13T19:59:12.219Z,6.90
2019-05-13T20:02:18.540Z,6.90
2019-05-13T20:05:26.637Z,6.80
2019-05-13T20:08:34.204Z,6.70
2019-05-13T20:11:43.311Z,6.60
2019-05-13T20:14:51.744Z,6.50
2019-05-13T20:18:01.430Z,6.30
2019-05-13T20:21:12.719Z,6.20
2019-05-13T20:24:18.973Z,6.10
2019-05-13T20:27:26.401Z,6.10
2019-05-13T20:30:33.914Z,6.10
2019-05-13T20:33:42.964Z,6.00
2019-05-13T20:36:51.568Z,5.90
2019-05-13T20:40:02.320Z,5.80
2019-05-13T20:43:11.642Z,5.80
2019-05-13T20:46:18.778Z,5.80
2019-05-13T20:49:27.277Z,5.80
2019-05-13T20:52:35.296Z,5.80
2019-05-13T20:55:42.769Z,5.70
2019-05-13T20:58:51.527Z,5.60
2019-05-13T21:02:02.123Z,5.60
2019-05-13T21:05:09.011Z,5.60
2019-05-13T21:08:16.505Z,5.60
2019-05-13T21:11:23.915Z,5.50
2019-05-13T21:14:31.986Z,5.50
2019-05-13T21:17:39.680Z,5.50
2019-05-13T21:20:47.155Z,5.40
2019-05-13T21:23:54.598Z,5.40
2019-05-13T21:27:02.262Z,5.40
2019-05-13T21:30:11.908Z,5.30
2019-05-13T21:33:21.897Z,5.30
2019-05-13T21:36:28.750Z,5.30
2019-05-13T21:39:36.228Z,5.30
2019-05-13T21:42:43.673Z,5.20
2019-05-13T21:45:52.297Z,5.10
2019-05-13T21:49:01.065Z,5.10
2019-05-13T21:52:10.086Z,5.00
2019-05-13T21:55:17.614Z,4.90
2019-05-13T21:58:25.105Z,4.90
2019-05-13T22:01:32.646Z,4.90
2019-05-13T22:04:41.302Z,4.90
2019-05-13T22:07:50.454Z,4.90
2019-05-13T22:11:01.582Z,4.80
2019-05-13T22:14:08.355Z,4.70
2019-05-13T22:17:16.295Z,4.80
2019-05-13T22:20:23.735Z,4.80
2019-05-13T22:23:32.159Z,4.80
2019-05-13T22:26:41.744Z,4.80
2019-05-13T22:29:48.831Z,4.80
2019-05-13T22:32:56.330Z,4.80
2019-05-13T22:36:03.874Z,4.70
2019-05-13T22:39:11.617Z,4.70
2019-05-13T22:42:21.411Z,4.70
2019-05-13T22:45:28.331Z,4.70
2019-05-13T22:48:35.780Z,4.60
2019-05-13T22:51:43.355Z,4.60
2019-05-13T22:54:51.905Z,4.60
2019-05-13T22:58:01.514Z,4.60
2019-05-13T23:01:08.561Z,4.60
2019-05-13T23:04:16.061Z,4.60
2019-05-13T23:07:23.479Z,4.60
2019-05-13T23:10:31.806Z,4.60
2019-05-13T23:13:41.962Z,4.60
2019-05-13T23:16:49.535Z,4.50
2019-05-13T23:19:58.250Z,4.60
2019-05-13T23:23:05.689Z,4.50
2019-05-13T23:26:13.261Z,4.60
2019-05-13T23:29:21.372Z,4.60
2019-05-13T23:32:29.117Z,4.60
2019-05-13T23:35:36.773Z,4.50
2019-05-13T23:38:44.305Z,4.50
2019-05-13T23:41:52.283Z,4.50
2019-05-13T23:44:59.919Z,4.60
2019-05-13T23:48:07.511Z,4.50
2019-05-13T23:51:15.053Z,4.50
2019-05-13T23:54:22.521Z,4.60
2019-05-13T23:57:31.392Z,4.60
